createdAt,value
2023-04-28T00:00:55.324Z,95148.09
2023-04-28T00:03:23.476Z,95154.75
2023-04-28T00:05:51.700Z,95148.16
2023-04-28T00:08:21.717Z,95153.44
2023-04-28T00:10:51.000Z,95163.97
2023-04-28T00:13:18.888Z,95155.19
2023-04-28T00:15:46.827Z,95159.09
2023-04-28T00:18:14.763Z,95155.94
2023-04-28T00:20:42.899Z,95155.97
2023-04-28T00:23:10.844Z,95154.41
2023-04-28T00:25:38.726Z,95152.28
2023-04-28T00:28:08.041Z,95147.81
2023-04-28T00:30:35.984Z,95150.97
2023-04-28T00:33:03.966Z,95152.56
2023-04-28T00:35:32.443Z,95151.78
2023-04-28T00:38:00.348Z,95143.34
2023-04-28T00:40:34.300Z,95154.94
2023-04-28T00:43:02.615Z,95154.94
2023-04-28T00:45:31.966Z,95150.41
2023-04-28T00:48:00.515Z,95157.50
2023-04-28T00:50:28.474Z,95157.69
2023-04-28T00:52:56.529Z,95149.56
2023-04-28T00:55:27.512Z,95149.06
2023-04-28T00:57:58.496Z,95155.91
2023-04-28T01:00:26.527Z,95160.66
2023-04-28T01:02:57.055Z,95160.16
2023-04-28T01:05:26.969Z,95155.19
2023-04-28T01:07:55.497Z,95149.13
2023-04-28T01:10:23.740Z,95149.91
2023-04-28T01:12:51.686Z,95152.00
2023-04-28T01:15:21.758Z,95142.78
2023-04-28T01:17:52.737Z,95138.03
2023-04-28T01:20:22.390Z,95147.47
2023-04-28T01:22:50.921Z,95140.63
2023-04-28T01:25:20.974Z,95154.34
2023-04-28T01:27:49.273Z,95152.25
2023-04-28T01:30:17.418Z,95150.13
2023-04-28T01:32:45.410Z,95142.78
2023-04-28T01:35:13.352Z,95148.59
2023-04-28T01:37:41.324Z,95145.94
2023-04-28T01:40:10.314Z,95145.41
2023-04-28T01:42:39.660Z,95144.38
2023-04-28T01:45:08.506Z,95148.59
2023-04-28T01:47:37.825Z,95145.94
2023-04-28T01:50:06.543Z,95148.03
2023-04-28T01:52:34.485Z,95150.66
2023-04-28T01:55:02.665Z,95154.34
2023-04-28T01:57:30.612Z,95146.47
2023-04-28T02:00:00.713Z,95146.97
2023-04-28T02:02:29.408Z,95146.97
2023-04-28T02:04:59.103Z,95143.56
2023-04-28T02:07:27.105Z,95143.06
2023-04-28T02:09:55.059Z,95138.06
2023-04-28T02:12:23.667Z,95138.59
2023-04-28T02:14:52.279Z,95148.31
2023-04-28T02:17:22.598Z,95148.03
2023-04-28T02:19:56.324Z,95132.75
2023-04-28T02:22:24.452Z,95126.72
2023-04-28T02:24:52.481Z,95131.97
2023-04-28T02:27:20.847Z,95137.44
2023-04-28T02:29:49.617Z,95137.44
2023-04-28T02:32:18.110Z,95141.63
2023-04-28T02:34:47.357Z,95142.66
2023-04-28T02:37:15.289Z,95146.84
2023-04-28T02:39:43.201Z,95141.44
2023-04-28T02:42:11.183Z,95139.38
2023-04-28T02:44:39.086Z,95134.66
2023-04-28T02:47:07.233Z,95139.19
2023-04-28T02:49:35.721Z,95148.16
2023-04-28T02:52:05.282Z,95155.25
2023-04-28T02:54:35.322Z,95151.81
2023-04-28T02:57:04.559Z,95148.81
2023-04-28T02:59:32.676Z,95149.59
2023-04-28T03:02:00.655Z,95155.34
2023-04-28T03:04:28.699Z,95152.81
2023-04-28T03:06:56.773Z,95152.22
2023-04-28T03:09:26.111Z,95159.56
2023-04-28T03:11:54.063Z,95156.38
2023-04-28T03:14:21.997Z,95159.38
2023-04-28T03:16:50.178Z,95157.41
2023-04-28T03:19:18.137Z,95150.88
2023-04-28T03:21:47.811Z,95155.66
2023-04-28T03:24:15.974Z,95161.41
2023-04-28T03:26:45.758Z,95163.50
2023-04-28T03:29:13.747Z,95164.59
2023-04-28T03:31:42.069Z,95173.53
2023-04-28T03:34:09.984Z,95166.38
2023-04-28T03:36:38.340Z,95166.16
2023-04-28T03:39:14.329Z,95174.13
2023-04-28T03:41:43.411Z,95173.66
2023-04-28T03:44:30.910Z,95176.22
2023-04-28T03:46:59.910Z,95169.34
2023-04-28T03:49:27.855Z,95168.53
2023-04-28T03:51:55.776Z,95170.91
2023-04-28T03:54:23.701Z,95169.84
2023-04-28T03:56:51.820Z,95175.91
2023-04-28T03:59:19.738Z,95168.53
2023-04-28T04:01:49.068Z,95173.66
2023-04-28T04:04:17.654Z,95172.63
2023-04-28T04:06:46.784Z,95166.88
2023-04-28T04:09:15.388Z,95174.50
2023-04-28T04:11:43.317Z,95174.28
2023-04-28T04:14:11.468Z,95168.53
2023-04-28T04:16:39.527Z,95161.19
2023-04-28T04:19:08.942Z,95156.19
2023-04-28T04:21:42.199Z,95158.00
2023-04-28T04:24:10.261Z,95140.84
2023-04-28T04:26:38.864Z,95142.66
2023-04-28T04:29:23.751Z,95146.31
2023-04-28T04:31:52.574Z,95150.00
2023-04-28T04:34:21.885Z,95153.06
2023-04-28T04:36:50.579Z,95152.28
2023-04-28T04:39:19.133Z,95147.28
2023-04-28T04:41:48.759Z,95152.53
2023-04-28T04:44:38.938Z,95149.13
2023-04-28T04:47:11.751Z,95150.38
2023-04-28T04:49:41.229Z,95152.47
2023-04-28T04:52:09.293Z,95156.66
2023-04-28T04:54:37.212Z,95148.22
2023-04-28T04:57:06.798Z,95145.13
2023-04-28T05:00:13.821Z,95144.66
2023-04-28T05:02:43.254Z,95137.78
2023-04-28T05:07:50.090Z,95160.44
2023-04-28T05:10:18.176Z,95154.06
2023-04-28T05:12:48.751Z,95148.81
2023-04-28T05:15:19.058Z,95149.91
2023-04-28T05:18:10.954Z,95149.44
2023-04-28T05:20:40.476Z,95159.25
2023-04-28T05:23:08.437Z,95156.16
2023-04-28T05:25:36.533Z,95164.66
2023-04-28T05:28:07.553Z,95151.50
2023-04-28T05:30:35.849Z,95156.28
2023-04-28T05:33:04.215Z,95153.69
2023-04-28T05:35:32.671Z,95163.16
2023-04-28T05:38:02.073Z,95151.59
2023-04-28T05:40:30.264Z,95159.50
2023-04-28T05:42:58.328Z,95155.03
2023-04-28T05:45:26.382Z,95163.19
2023-04-28T05:47:55.210Z,95166.38
2023-04-28T05:50:24.129Z,95168.03
2023-04-28T05:52:52.509Z,95159.38
2023-04-28T05:55:22.100Z,95176.84
2023-04-28T05:57:53.313Z,95163.38
2023-04-28T06:00:22.890Z,95161.44
2023-04-28T06:02:54.374Z,95167.88
2023-04-28T06:05:23.453Z,95164.78
2023-04-28T06:07:56.131Z,95168.47
2023-04-28T06:10:27.264Z,95167.94
2023-04-28T06:12:55.240Z,95165.94
2023-04-28T06:15:23.115Z,95154.91
2023-04-28T06:17:51.357Z,95172.22
2023-04-28T06:20:20.585Z,95159.59
2023-04-28T06:22:48.606Z,95161.22
2023-04-28T06:25:16.563Z,95170.13
2023-04-28T06:27:48.806Z,95169.63
2023-04-28T06:30:19.995Z,95157.94
2023-04-28T06:32:47.980Z,95156.97
2023-04-28T06:35:16.478Z,95166.16
2023-04-28T06:37:44.549Z,95174.34
2023-04-28T06:40:12.868Z,95172.78
2023-04-28T06:42:50.899Z,95184.81
2023-04-28T06:45:25.650Z,95190.66
2023-04-28T06:47:56.033Z,95180.59
2023-04-28T06:50:24.466Z,95181.16
2023-04-28T06:52:52.447Z,95192.25
2023-04-28T06:55:20.567Z,95191.31
2023-04-28T06:57:49.958Z,95189.22
2023-04-28T07:00:18.717Z,95189.75
2023-04-28T07:02:46.796Z,95196.09
2023-04-28T07:05:16.282Z,95197.72
2023-04-28T07:07:44.851Z,95204.56
2023-04-28T07:10:13.339Z,95213.56
2023-04-28T07:12:41.226Z,95212.56
2023-04-28T07:15:11.585Z,95222.66
2023-04-28T07:17:39.672Z,95215.28
2023-04-28T07:20:08.767Z,95223.72
2023-04-28T07:22:36.746Z,95215.34
2023-04-28T07:25:06.049Z,95227.47
2023-04-28T07:27:34.196Z,95224.38
2023-04-28T07:30:11.619Z,95222.81
2023-04-28T07:32:48.422Z,95219.19
2023-04-28T07:35:16.466Z,95223.44
2023-04-28T07:37:44.466Z,95230.19
2023-04-28T07:40:12.979Z,95228.63
2023-04-28T07:42:41.062Z,95213.34
2023-04-28T07:45:09.788Z,95217.59
2023-04-28T07:47:37.951Z,95216.03
2023-04-28T07:50:08.548Z,95218.16
2023-04-28T07:52:36.750Z,95230.88
2023-04-28T07:55:04.788Z,95217.16
2023-04-28T07:57:32.664Z,95218.53
2023-04-28T08:00:00.603Z,95217.75
2023-04-28T08:02:29.024Z,95220.38
2023-04-28T08:04:57.408Z,95229.38
2023-04-28T08:07:26.948Z,95227.84
2023-04-28T08:09:55.321Z,95233.66
2023-04-28T08:12:23.257Z,95235.22
2023-04-28T08:14:51.149Z,95228.31
2023-04-28T08:17:19.358Z,95227.78
2023-04-28T08:19:47.572Z,95223.59
2023-04-28T08:22:15.907Z,95213.00
2023-04-28T08:24:45.232Z,95221.47
2023-04-28T08:27:13.447Z,95230.47
2023-04-28T08:29:41.379Z,95232.06
2023-04-28T08:32:09.572Z,95236.28
2023-04-28T08:34:37.532Z,95226.53
2023-04-28T08:37:06.912Z,95242.59
2023-04-28T08:39:35.374Z,95234.16
2023-04-28T08:42:06.154Z,95242.06
2023-04-28T08:44:39.473Z,95236.22
2023-04-28T08:47:13.033Z,95238.84
2023-04-28T08:49:45.637Z,95231.97
2023-04-28T08:52:18.388Z,95240.44
2023-04-28T08:54:50.577Z,95247.84
2023-04-28T08:57:21.759Z,95245.69
2023-04-28T08:59:50.339Z,95253.66
2023-04-28T09:02:18.690Z,95253.94
2023-04-28T09:04:48.269Z,95253.16
2023-04-28T09:07:16.437Z,95256.31
2023-04-28T09:09:45.355Z,95256.84
2023-04-28T09:12:13.268Z,95256.81
2023-04-28T09:14:42.694Z,95263.97
2023-04-28T09:17:13.242Z,95269.78
2023-04-28T09:19:43.052Z,95270.59
2023-04-28T09:22:25.478Z,95268.50
2023-04-28T09:24:55.439Z,95272.19
2023-04-28T09:27:28.708Z,95270.06
2023-04-28T09:29:58.310Z,95267.94
2023-04-28T09:32:27.968Z,95264.22
2023-04-28T09:34:57.532Z,95247.56
2023-04-28T09:37:27.299Z,95246.25
2023-04-28T09:39:56.334Z,95248.38
2023-04-28T09:42:34.895Z,95245.69
2023-04-28T09:45:05.966Z,95238.28
2023-04-28T09:47:35.645Z,95247.28
2023-04-28T09:50:05.144Z,95244.91
2023-04-28T09:52:34.577Z,95242.47
2023-04-28T09:55:04.712Z,95241.97
2023-04-28T09:57:34.605Z,95239.28
2023-04-28T10:00:06.447Z,95233.94
2023-04-28T10:05:09.601Z,95229.66
2023-04-28T10:07:39.199Z,95233.34
2023-04-28T10:10:08.625Z,95236.59
2023-04-28T10:12:38.411Z,95232.34
2023-04-28T10:15:10.677Z,95225.53
2023-04-28T10:17:40.624Z,95230.75
2023-04-28T10:20:10.067Z,95224.94
2023-04-28T10:22:54.389Z,95221.16
2023-04-28T10:25:28.951Z,95222.19
2023-04-28T10:27:57.326Z,95204.88
2023-04-28T10:30:29.551Z,95199.84
2023-04-28T10:33:27.370Z,95205.59
2023-04-28T10:35:55.641Z,95209.13
2023-04-28T10:38:23.589Z,95196.19
2023-04-28T10:40:53.795Z,95201.97
2023-04-28T10:43:40.655Z,95207.69
2023-04-28T10:46:11.461Z,95205.22
2023-04-28T10:48:56.483Z,95211.16
2023-04-28T10:51:34.422Z,95208.94
2023-04-28T10:54:28.241Z,95215.13
2023-04-28T10:57:19.276Z,95211.47
2023-04-28T10:59:47.414Z,95213.03
2023-04-28T11:02:47.238Z,95206.56
2023-04-28T11:05:18.850Z,95206.56
2023-04-28T11:08:32.799Z,95202.84
2023-04-28T11:11:20.812Z,95197.53
2023-04-28T11:13:50.303Z,95194.03
2023-04-28T11:16:23.991Z,95192.16
2023-04-28T11:19:04.903Z,95183.75
2023-04-28T11:21:34.051Z,95184.78
2023-04-28T11:24:10.470Z,95182.50
2023-04-28T11:26:39.379Z,95175.88
2023-04-28T11:29:07.302Z,95174.63
2023-04-28T11:31:35.416Z,95180.59
2023-04-28T11:34:11.946Z,95167.09
2023-04-28T11:36:41.763Z,95169.59
2023-04-28T11:39:10.975Z,95173.13
2023-04-28T11:41:41.051Z,95162.75
2023-04-28T11:44:13.519Z,95163.91
2023-04-28T11:46:51.027Z,95155.38
2023-04-28T11:49:21.370Z,95159.03
2023-04-28T11:51:50.288Z,95154.75
2023-04-28T11:54:22.714Z,95142.72
2023-04-28T11:56:51.071Z,95149.59
2023-04-28T11:59:20.762Z,95162.94
2023-04-28T12:01:50.857Z,95149.56
2023-04-28T12:04:31.908Z,95143.59
2023-04-28T12:07:02.173Z,95135.13
2023-04-28T12:09:30.566Z,95137.28
2023-04-28T12:12:01.000Z,95134.13
2023-04-28T12:14:28.991Z,95133.16
2023-04-28T12:16:57.426Z,95144.94
2023-04-28T12:19:25.390Z,95125.03
2023-04-28T12:22:12.431Z,95126.06
2023-04-28T12:24:41.028Z,95127.00
2023-04-28T12:27:16.700Z,95132.16
2023-04-28T12:29:46.548Z,95127.66
2023-04-28T12:32:15.228Z,95133.56
2023-04-28T12:34:44.034Z,95140.53
2023-04-28T12:37:13.978Z,95126.88
2023-04-28T12:39:43.189Z,95134.19
2023-04-28T12:42:11.798Z,95131.97
2023-04-28T12:44:40.883Z,95140.00
2023-04-28T12:47:11.232Z,95133.19
2023-04-28T12:49:39.865Z,95132.56
2023-04-28T12:52:07.934Z,95134.06
2023-04-28T12:54:37.417Z,95133.47
2023-04-28T12:57:06.261Z,95129.63
2023-04-28T12:59:34.399Z,95127.47
2023-04-28T13:02:02.671Z,95125.41
2023-04-28T13:04:31.235Z,95122.34
2023-04-28T13:06:59.752Z,95115.72
2023-04-28T13:09:27.971Z,95116.91
2023-04-28T13:11:57.328Z,95119.16
2023-04-28T13:14:25.498Z,95122.91
2023-04-28T13:16:53.888Z,95124.59
2023-04-28T13:19:22.384Z,95117.09
2023-04-28T13:21:50.637Z,95110.53
2023-04-28T13:24:18.814Z,95100.41
2023-04-28T13:26:46.761Z,95110.63
2023-04-28T13:29:16.221Z,95104.75
2023-04-28T13:31:44.508Z,95095.09
2023-04-28T13:34:16.096Z,95097.66
2023-04-28T13:36:45.607Z,95100.91
2023-04-28T13:39:14.718Z,95097.25
2023-04-28T13:41:43.220Z,95101.16
2023-04-28T13:44:11.384Z,95089.13
2023-04-28T13:46:40.687Z,95099.53
2023-04-28T13:49:08.763Z,95100.91
2023-04-28T13:51:36.735Z,95090.03
2023-04-28T13:54:05.445Z,95094.09
2023-04-28T13:56:33.562Z,95095.69
2023-04-28T13:59:01.558Z,95096.47
2023-04-28T14:01:29.733Z,95088.59
2023-04-28T14:03:59.651Z,95090.03
2023-04-28T14:06:28.884Z,95096.28
2023-04-28T14:08:56.987Z,95091.50
2023-04-28T14:11:24.891Z,95087.28
2023-04-28T14:13:52.766Z,95087.13
2023-04-28T14:16:20.894Z,95084.84
2023-04-28T14:18:49.802Z,95076.81
2023-04-28T14:21:19.042Z,95078.38
2023-04-28T14:23:47.185Z,95080.13
2023-04-28T14:26:15.111Z,95074.56
2023-04-28T14:28:43.124Z,95076.22
2023-04-28T14:31:11.043Z,95077.03
2023-04-28T14:33:38.910Z,95066.16
2023-04-28T14:36:06.995Z,95060.44
2023-04-28T14:38:38.253Z,95073.09
2023-04-28T14:41:07.475Z,95067.94
2023-04-28T14:43:35.395Z,95061.66
2023-04-28T14:46:03.364Z,95064.41
2023-04-28T14:48:32.437Z,95065.59
2023-04-28T14:51:00.518Z,95060.81
2023-04-28T14:53:28.662Z,95060.59
2023-04-28T14:56:07.519Z,95055.00
2023-04-28T14:58:45.488Z,95058.25
2023-04-28T15:01:13.475Z,95058.25
2023-04-28T15:03:41.546Z,95061.34
2023-04-28T15:06:10.179Z,95055.84
2023-04-28T15:08:38.047Z,95054.94
2023-04-28T15:11:07.351Z,95055.59
2023-04-28T15:13:35.895Z,95055.78
2023-04-28T15:16:03.902Z,95050.97
2023-04-28T15:18:31.955Z,95057.97
2023-04-28T15:21:00.559Z,95053.44
2023-04-28T15:23:28.568Z,95052.03
2023-04-28T15:25:56.457Z,95053.63
2023-04-28T15:28:25.952Z,95049.13
2023-04-28T15:30:54.022Z,95054.16
2023-04-28T15:33:21.906Z,95049.13
2023-04-28T15:35:49.830Z,95046.38
2023-04-28T15:38:18.189Z,95048.16
2023-04-28T15:40:47.200Z,95050.03
2023-04-28T15:43:15.089Z,95040.50
2023-04-28T15:45:44.911Z,95039.31
2023-04-28T15:48:12.922Z,95035.56
2023-04-28T15:50:41.709Z,95031.84
2023-04-28T15:53:09.744Z,95027.00
2023-04-28T15:55:37.884Z,95026.03
2023-04-28T15:58:05.836Z,95024.22
2023-04-28T16:00:34.207Z,95023.41
2023-04-28T16:03:03.794Z,95023.63
2023-04-28T16:05:31.992Z,95012.81
2023-04-28T16:08:00.047Z,95016.34
2023-04-28T16:10:28.561Z,95012.50
2023-04-28T16:12:56.916Z,95013.59
2023-04-28T16:15:25.310Z,95010.81
2023-04-28T16:17:53.368Z,95007.28
2023-04-28T16:20:22.857Z,95005.09
2023-04-28T16:22:50.859Z,95005.31
2023-04-28T16:25:19.210Z,95005.31
2023-04-28T16:27:47.138Z,95000.38
2023-04-28T16:30:15.452Z,95001.19
2023-04-28T16:32:43.381Z,94995.28
2023-04-28T16:35:15.270Z,94992.03
2023-04-28T16:37:44.841Z,95000.38
2023-04-28T16:40:13.966Z,95003.53
2023-04-28T16:42:43.521Z,94991.72
2023-04-28T16:45:12.174Z,94991.94
2023-04-28T16:47:42.317Z,94995.25
2023-04-28T16:50:11.567Z,94990.13
2023-04-28T16:52:39.462Z,94988.53
2023-04-28T16:55:09.816Z,94986.78
2023-04-28T16:57:37.856Z,94983.72
2023-04-28T17:00:06.881Z,94984.81
2023-04-28T17:02:34.963Z,94980.16
2023-04-28T17:05:03.154Z,94982.41
2023-04-28T17:07:31.261Z,94983.03
2023-04-28T17:09:59.317Z,94983.25
2023-04-28T17:12:28.559Z,94978.41
2023-04-28T17:14:56.504Z,94978.31
2023-04-28T17:17:24.418Z,94971.06
2023-04-28T17:19:52.689Z,94965.75
2023-04-28T17:22:20.757Z,94960.59
2023-04-28T17:24:48.626Z,94960.00
2023-04-28T17:27:16.520Z,94963.78
2023-04-28T17:29:45.814Z,94965.31
2023-04-28T17:32:13.780Z,94966.09
2023-04-28T17:34:41.686Z,94972.22
2023-04-28T17:37:09.749Z,94975.38
2023-04-28T17:39:37.645Z,94962.75
2023-04-28T17:42:05.560Z,94960.59
2023-04-28T17:44:33.477Z,94961.00
2023-04-28T17:47:02.822Z,94962.59
2023-04-28T17:49:30.910Z,94966.91
2023-04-28T17:51:58.864Z,94971.44
2023-04-28T17:54:26.747Z,94965.63
2023-04-28T17:56:55.973Z,94966.41
2023-04-28T17:59:24.133Z,94969.53
2023-04-28T18:01:53.791Z,94972.97
2023-04-28T18:04:23.161Z,94973.19
2023-04-28T18:06:51.068Z,94966.78
2023-04-28T18:09:18.985Z,94961.66
2023-04-28T18:11:47.111Z,94956.19
2023-04-28T18:14:18.296Z,94956.91
2023-04-28T18:16:46.546Z,94947.72
2023-04-28T18:19:14.694Z,94951.63
2023-04-28T18:21:43.922Z,94947.22
2023-04-28T18:24:11.924Z,94946.53
2023-04-28T18:26:39.864Z,94946.31
2023-04-28T18:29:07.805Z,94946.16
2023-04-28T18:31:35.805Z,94950.91
2023-04-28T18:34:05.123Z,94938.03
2023-04-28T18:36:34.897Z,94937.66
2023-04-28T18:39:06.252Z,94932.88
2023-04-28T18:41:35.836Z,94938.81
2023-04-28T18:44:04.103Z,94943.78
2023-04-28T18:46:32.737Z,94938.34
2023-04-28T18:49:00.698Z,94945.22
2023-04-28T18:51:28.625Z,94946.22
2023-04-28T18:53:56.489Z,94942.19
2023-04-28T18:56:25.818Z,94948.53
2023-04-28T18:58:53.702Z,94953.88
2023-04-28T19:01:21.824Z,94952.09
2023-04-28T19:03:50.232Z,94944.38
2023-04-28T19:06:19.874Z,94948.06
2023-04-28T19:08:48.067Z,94941.47
2023-04-28T19:11:16.088Z,94946.91
2023-04-28T19:13:45.684Z,94944.69
2023-04-28T19:16:13.640Z,94960.97
2023-04-28T19:18:42.141Z,94974.47
2023-04-28T19:21:12.190Z,95000.38
2023-04-28T19:23:40.829Z,95015.06
2023-04-28T19:26:09.530Z,95024.44
2023-04-28T19:28:37.565Z,95041.91
2023-04-28T19:31:06.954Z,95051.63
2023-04-28T19:33:34.875Z,95069.78
2023-04-28T19:36:03.176Z,95089.19
2023-04-28T19:38:31.145Z,95096.16
2023-04-28T19:41:02.520Z,95084.44
2023-04-28T19:43:30.712Z,95058.00
2023-04-28T19:45:58.709Z,95048.13
2023-04-28T19:48:28.217Z,95059.06
2023-04-28T19:50:56.478Z,95079.69
2023-04-28T19:53:24.429Z,95092.41
2023-04-28T19:55:52.373Z,95090.38
2023-04-28T19:58:20.834Z,95083.63
2023-04-28T20:00:48.946Z,95083.47
2023-04-28T20:03:17.509Z,95086.56
2023-04-28T20:05:47.114Z,95095.13
2023-04-28T20:08:15.085Z,95097.03
2023-04-28T20:10:43.487Z,95098.81
2023-04-28T20:13:11.471Z,95097.22
2023-04-28T20:15:40.172Z,95111.06
2023-04-28T20:18:08.193Z,95116.28
2023-04-28T20:20:36.147Z,95116.56
2023-04-28T20:23:05.416Z,95101.03
2023-04-28T20:25:37.235Z,95107.00
2023-04-28T20:28:05.375Z,95111.72
2023-04-28T20:30:33.275Z,95113.19
2023-04-28T20:33:01.456Z,95123.03
2023-04-28T20:35:29.459Z,95130.50
2023-04-28T20:37:58.769Z,95122.34
2023-04-28T20:40:28.276Z,95110.94
2023-04-28T20:42:56.752Z,95119.97
2023-04-28T20:45:24.674Z,95132.19
2023-04-28T20:47:53.940Z,95130.97
2023-04-28T20:50:23.128Z,95135.09
2023-04-28T20:52:51.144Z,95138.50
2023-04-28T20:55:19.078Z,95150.56
2023-04-28T20:57:48.392Z,95175.50
2023-04-28T21:00:16.529Z,95186.00
2023-04-28T21:02:45.431Z,95191.88
2023-04-28T21:05:13.740Z,95195.59
2023-04-28T21:07:41.732Z,95198.25
2023-04-28T21:10:10.839Z,95185.53
2023-04-28T21:12:38.833Z,95183.31
2023-04-28T21:15:09.144Z,95178.31
2023-04-28T21:17:37.113Z,95174.00
2023-04-28T21:20:06.013Z,95170.16
2023-04-28T21:22:34.293Z,95158.88
2023-04-28T21:25:02.203Z,95160.47
2023-04-28T21:27:30.132Z,95159.69
2023-04-28T21:29:58.423Z,95154.94
2023-04-28T21:32:27.775Z,95142.75
2023-04-28T21:34:55.729Z,95152.69
2023-04-28T21:37:23.678Z,95141.69
2023-04-28T21:39:51.773Z,95127.31
2023-04-28T21:42:19.977Z,95124.28
2023-04-28T21:44:48.002Z,95131.66
2023-04-28T21:47:16.726Z,95116.28
2023-04-28T21:49:46.095Z,95108.81
2023-04-28T21:52:14.312Z,95106.84
2023-04-28T21:54:42.504Z,95098.97
2023-04-28T21:57:10.453Z,95103.41
2023-04-28T21:59:38.393Z,95096.66
2023-04-28T22:02:07.324Z,95097.00
2023-04-28T22:04:35.608Z,95085.19
2023-04-28T22:07:05.763Z,95080.50
2023-04-28T22:09:33.844Z,95060.25
2023-04-28T22:12:01.712Z,95059.78
2023-04-28T22:17:00.507Z,95049.31
2023-04-28T22:19:28.394Z,95051.28
2023-04-28T22:21:56.297Z,95045.59
2023-04-28T22:24:25.866Z,95046.19
2023-04-28T22:26:54.776Z,95036.19
2023-04-28T22:29:22.847Z,95034.59
2023-04-28T22:31:50.753Z,95040.41
2023-04-28T22:34:18.929Z,95043.06
2023-04-28T22:36:47.451Z,95033.06
2023-04-28T22:39:15.530Z,95047.22
2023-04-28T22:41:44.931Z,95050.94
2023-04-28T22:44:12.817Z,95047.97
2023-04-28T22:46:40.785Z,95040.41
2023-04-28T22:49:08.793Z,95049.63
2023-04-28T22:51:36.826Z,95062.28
2023-04-28T22:54:04.943Z,95060.97
2023-04-28T22:56:32.855Z,95056.50
2023-04-28T22:59:03.190Z,95058.34
2023-04-28T23:01:31.982Z,95062.59
2023-04-28T23:04:00.111Z,95044.13
2023-04-28T23:06:29.182Z,95042.53
2023-04-28T23:08:57.090Z,95043.59
2023-04-28T23:11:25.489Z,95049.66
2023-04-28T23:13:53.510Z,95043.56
2023-04-28T23:16:23.002Z,95040.41
2023-04-28T23:18:50.963Z,95040.69
2023-04-28T23:21:18.881Z,95031.47
2023-04-28T23:23:46.822Z,95031.97
2023-04-28T23:26:14.693Z,95030.94
2023-04-28T23:28:42.639Z,95034.63
2023-04-28T23:31:10.590Z,95035.13
2023-04-28T23:33:39.915Z,95037.25
2023-04-28T23:36:09.066Z,95038.25
2023-04-28T23:38:36.978Z,95049.34
2023-04-28T23:41:06.370Z,95053.28
2023-04-28T23:43:34.301Z,95049.31
2023-04-28T23:46:02.590Z,95044.00
2023-04-28T23:48:30.559Z,95038.81
2023-04-28T23:50:59.880Z,95027.69
2023-04-28T23:53:28.003Z,95022.47
2023-04-28T23:55:55.941Z,95026.59
2023-04-28T23:58:23.909Z,95032.38
